首页
METAR-TAF:

METAR-TAF

机场 :

里米尼, 意大利

纬度: 44-02N, 经度: 012-37E, 海拔: 12米

当前天气观测

该预报发布于29分钟前的11:50 UTC
风速7节,风向西,在南转西南西北之间变化
温度 14°C
湿度 19%
气压 1011 hPa
能见度10公里或以上
1500米以下无云,无积雨云

METAR: LIPR 271150Z 26007KT 210V310 CAVOK 14/M09 Q1011

时间: 13:19 (12:19 UTC)

预报

该预报发布于1小时和19分钟前的11:00 UTC
预报有效从27日的 12点(UTC)到 27日的 21点(UTC)
风速12节,风向西转西南
能见度10公里或以上
1500米以下无云,无积雨云

TAF: LIPR 271100Z 2712/2721 25012KT CAVOK

超过4000个机场的气象观测和天气预报(METAR&TAF报告)。

可查询的气象台以黄色和红色小点在地图上表示。

将鼠标移到小点上方,可查看气象台名称。

然后点击查看天气观测和预报。

如需切换地图:点击带黑十字的绿色按钮放大地图;点击带横线的绿色按钮缩小地图;或者点击绿色箭头查看邻近地区的地图。


METAR-TAF: